Time;durP1;ratioP1;P1;durP2;ratioP2;P2;SDS_P1;SDS_P2;PMS_P1;PMS_P2;Temp;Humidity;BMP_temperature;BMP_pressure;BME280_temperature;BME280_humidity;BME280_pressure;Samples;Min_cycle;Max_cycle;Signal;HPM_P1;HPM_P2
2022/04/16 00:00:58;;;;;;;10.07;4.55;;;;;;;2.68;100.00;103056.09;5020365;28;20022;-77
2022/04/16 00:03:24;;;;;;;10.63;4.85;;;;;;;2.65;100.00;103056.22;5020919;28;20107;-78
2022/04/16 00:05:56;;;;;;;20.27;6.28;;;;;;;2.53;100.00;103058.38;5028375;28;20044;-77
2022/04/16 00:08:23;;;;;;;10.55;4.30;;;;;;;2.50;100.00;103061.09;5022832;28;20037;-78
2022/04/16 00:10:50;;;;;;;7.30;4.00;;;;;;;2.44;100.00;103061.34;5020466;28;20034;-78
2022/04/16 00:13:17;;;;;;;10.50;5.68;;;;;;;2.39;100.00;103065.91;5014516;28;20465;-78
2022/04/16 00:15:43;;;;;;;6.82;3.83;;;;;;;2.23;100.00;103067.34;5005843;28;20025;-78
2022/04/16 00:18:10;;;;;;;6.90;3.95;;;;;;;2.14;100.00;103062.38;5020001;28;20034;-77
2022/04/16 00:20:35;;;;;;;5.22;3.63;;;;;;;1.97;100.00;103066.44;5030425;28;20018;-78
2022/04/16 00:23:01;;;;;;;9.85;3.83;;;;;;;1.92;100.00;103065.72;5019398;28;20130;-78
2022/04/16 00:25:27;;;;;;;8.85;4.40;;;;;;;1.88;100.00;103069.34;5018373;28;20103;-78
2022/04/16 00:27:55;;;;;;;;;;;;;;;1.76;100.00;103059.22;5019366;28;20048;-77
2022/04/16 00:30:20;;;;;;;10.85;3.75;;;;;;;1.67;100.00;103066.50;5021173;28;19943;-78
2022/04/16 00:32:46;;;;;;;8.68;3.65;;;;;;;1.57;100.00;103067.69;5021662;28;20483;-78
2022/04/16 00:35:13;;;;;;;11.52;3.50;;;;;;;1.51;100.00;103059.97;5018437;28;20095;-77
2022/04/16 00:37:39;;;;;;;6.82;3.47;;;;;;;1.43;100.00;103069.91;5017868;28;20034;-79
2022/04/16 00:40:06;;;;;;;6.80;3.33;;;;;;;1.35;100.00;103062.19;5021143;28;20022;-77
2022/04/16 00:42:39;;;;;;;9.18;3.08;;;;;;;1.24;100.00;103059.91;5020977;28;20037;-78
2022/04/16 00:45:05;;;;;;;9.55;3.63;;;;;;;1.20;100.00;103063.53;5027717;28;20095;-78
2022/04/16 00:47:31;;;;;;;;;;;;;;;1.15;100.00;103057.53;5018227;28;20049;-78
2022/04/16 00:49:56;;;;;;;6.38;3.40;;;;;;;1.09;100.00;103056.84;5009225;28;19917;-77
2022/04/16 00:52:21;;;;;;;7.97;3.23;;;;;;;1.08;100.00;103058.63;5017415;28;20025;-78
2022/04/16 00:54:49;;;;;;;6.70;3.57;;;;;;;1.03;100.00;103060.50;5017603;28;20109;-77
2022/04/16 00:57:16;;;;;;;7.70;3.33;;;;;;;0.98;100.00;103062.41;5001160;28;20277;-78
2022/04/16 00:59:42;;;;;;;7.88;3.65;;;;;;;0.90;100.00;103064.41;5022547;28;20507;-77
2022/04/16 01:02:09;;;;;;;5.68;3.03;;;;;;;0.88;100.00;103068.84;5019160;28;20041;-77
2022/04/16 01:04:35;;;;;;;9.77;3.83;;;;;;;0.87;100.00;103064.47;5017413;28;20585;-77
2022/04/16 01:07:00;;;;;;;8.60;3.33;;;;;;;0.83;100.00;103064.56;5022639;28;20025;-77
2022/04/16 01:09:26;;;;;;;8.73;4.67;;;;;;;0.80;100.00;103064.66;5005653;28;20042;-77
2022/04/16 01:11:51;;;;;;;11.53;5.20;;;;;;;0.76;100.00;103070.06;5016486;28;20276;-77
2022/04/16 01:14:19;;;;;;;7.00;3.63;;;;;;;0.72;100.00;103068.41;5020382;28;20268;-79
2022/04/16 01:16:45;;;;;;;6.57;3.88;;;;;;;0.63;100.00;103059.00;5018253;28;20021;-77
2022/04/16 01:19:10;;;;;;;9.60;3.75;;;;;;;0.60;100.00;103066.97;5019984;28;20040;-77
2022/04/16 01:21:36;;;;;;;8.30;4.15;;;;;;;0.57;100.00;103074.94;5021968;28;20487;-77
2022/04/16 01:24:01;;;;;;;11.63;4.50;;;;;;;0.52;100.00;103076.84;5001817;28;20147;-77
2022/04/16 01:26:26;;;;;;;7.20;3.70;;;;;;;0.46;100.00;103074.38;5019973;28;20847;-77
2022/04/16 01:28:52;;;;;;;9.00;4.77;;;;;;;0.49;100.00;103071.66;5019026;28;20295;-77
2022/04/16 01:31:17;;;;;;;17.67;4.67;;;;;;;0.52;100.00;103087.38;5015530;28;20044;-76
2022/04/16 01:33:43;;;;;;;10.93;4.60;;;;;;;0.50;100.00;103090.03;5020095;28;20297;-77
2022/04/16 01:36:08;;;;;;;10.63;5.00;;;;;;;0.44;100.00;103094.56;5010755;28;20296;-77
2022/04/16 01:38:33;;;;;;;10.60;5.72;;;;;;;0.37;100.00;103092.09;5019340;28;20034;-77
2022/04/16 01:40:59;;;;;;;10.37;5.50;;;;;;;0.37;100.00;103105.22;5000046;28;20069;-78
2022/04/16 01:43:25;;;;;;;9.77;4.50;;;;;;;0.33;100.00;103095.72;5028964;28;20622;-78
2022/04/16 01:45:50;;;;;;;12.13;5.00;;;;;;;0.34;100.00;103104.44;5024533;28;20410;-79
2022/04/16 01:48:17;;;;;;;9.43;4.68;;;;;;;0.27;100.00;103102.88;5010845;28;20068;-77
2022/04/16 01:50:42;;;;;;;12.82;5.55;;;;;;;0.19;100.00;103100.47;5025776;28;20591;-78
2022/04/16 01:53:08;;;;;;;9.10;5.05;;;;;;;0.16;100.00;103104.03;5043503;28;20045;-76
2022/04/16 01:55:33;;;;;;;11.93;4.93;;;;;;;0.14;100.00;103094.44;5026973;28;20044;-79
2022/04/16 01:57:58;;;;;;;12.50;4.90;;;;;;;0.11;100.00;103097.13;5025076;28;20438;-78
2022/04/16 02:00:24;;;;;;;10.55;5.20;;;;;;;0.09;100.00;103093.69;5011559;28;20264;-78
2022/04/16 02:02:50;;;;;;;9.27;4.50;;;;;;;0.10;100.00;103100.69;5006094;28;20061;-77
2022/04/16 02:05:16;;;;;;;9.15;5.93;;;;;;;0.14;100.00;103104.94;5008049;28;20026;-78
2022/04/16 02:07:41;;;;;;;9.20;4.85;;;;;;;0.16;100.00;103111.00;5025630;28;20048;-77
2022/04/16 02:10:07;;;;;;;9.25;4.28;;;;;;;0.11;100.00;103108.50;5025827;28;20071;-78
2022/04/16 02:12:35;;;;;;;10.55;5.32;;;;;;;0.08;100.00;103110.34;5026672;28;20049;-77
2022/04/16 02:15:01;;;;;;;12.25;6.18;;;;;;;0.02;100.00;103111.34;5025632;28;20025;-76
2022/04/16 02:17:26;;;;;;;10.90;6.40;;;;;;;0.02;100.00;103111.34;5023466;28;20033;-78
2022/04/16 02:19:52;;;;;;;11.30;5.50;;;;;;;-0.03;100.00;103103.56;5029931;28;20772;-78
2022/04/16 02:22:17;;;;;;;10.68;4.60;;;;;;;0.02;100.00;103110.47;5025422;28;20045;-80
2022/04/16 02:24:46;;;;;;;12.45;5.93;;;;;;;-0.01;100.00;103119.31;5026477;28;20033;-77
2022/04/16 02:27:11;;;;;;;16.85;6.85;;;;;;;-0.02;100.00;103107.94;5011016;28;20163;-78
2022/04/16 02:29:37;;;;;;;18.20;7.28;;;;;;;-0.07;100.00;103104.56;5031429;28;20511;-77
2022/04/16 02:32:03;;;;;;;12.80;7.67;;;;;;;-0.13;100.00;103098.59;5029894;28;20064;-78
2022/04/16 02:34:29;;;;;;;9.23;5.70;;;;;;;-0.15;100.00;103100.38;5029778;28;20283;-78
2022/04/16 02:36:57;;;;;;;16.63;8.32;;;;;;;-0.18;100.00;103103.94;5028316;28;20041;-78
2022/04/16 02:39:22;;;;;;;14.40;6.40;;;;;;;-0.22;100.00;103097.03;5013732;28;20152;-79
2022/04/16 02:41:48;;;;;;;14.93;6.80;;;;;;;-0.27;100.00;103102.38;5026386;28;20498;-78
2022/04/16 02:47:06;;;;;;;15.50;8.13;;;;;;;-0.35;100.00;103103.44;5029084;28;20281;-78
2022/04/16 02:49:33;;;;;;;14.93;6.85;;;;;;;-0.38;100.00;103109.63;5033488;28;20549;-80
2022/04/16 02:51:59;;;;;;;13.20;7.00;;;;;;;-0.41;100.00;103107.09;5030231;28;20096;-80
2022/04/16 02:54:25;;;;;;;11.27;6.47;;;;;;;-0.38;100.00;103106.16;5037764;28;20041;-79
2022/04/16 02:56:50;;;;;;;17.23;7.45;;;;;;;-0.46;100.00;103112.44;5037646;28;20275;-80
2022/04/16 02:59:16;;;;;;;16.65;7.93;;;;;;;-0.47;100.00;103099.34;5014130;28;20446;-79
2022/04/16 03:01:41;;;;;;;13.83;7.27;;;;;;;-0.52;100.00;103106.44;5029642;28;20093;-79
2022/04/16 03:04:07;;;;;;;17.70;7.87;;;;;;;-0.59;100.00;103110.09;5032534;28;20288;-80
2022/04/16 03:06:32;;;;;;;13.18;7.45;;;;;;;-0.68;100.00;103111.16;5029967;28;20038;-77
2022/04/16 03:08:57;;;;;;;16.70;7.77;;;;;;;-0.72;100.00;103113.00;5034353;28;20056;-76
2022/04/16 03:11:23;;;;;;;14.87;7.97;;;;;;;-0.72;100.00;103109.50;5027926;28;20280;-77
2022/04/16 03:13:48;;;;;;;19.08;9.15;;;;;;;-0.68;100.00;103104.16;5033148;28;20060;-79
2022/04/16 03:18:58;;;;;;;13.77;6.93;;;;;;;-0.72;100.00;103101.63;5033196;28;20044;-78
2022/04/16 03:21:23;;;;;;;18.33;8.60;;;;;;;-0.72;100.00;103114.75;5032221;28;20057;-80
2022/04/16 03:23:49;;;;;;;17.40;9.48;;;;;;;-0.71;100.00;103108.59;5035572;28;20037;-80
2022/04/16 03:26:15;;;;;;;17.87;7.80;;;;;;;-0.84;100.00;103115.88;5032176;28;20025;-79
2022/04/16 03:28:41;;;;;;;20.58;9.38;;;;;;;-0.85;100.00;103122.00;5031120;28;20319;-78
2022/04/16 03:31:06;;;;;;;21.98;9.90;;;;;;;-0.83;100.00;103122.84;5032160;28;20030;-79
2022/04/16 03:33:32;;;;;;;21.77;8.73;;;;;;;-0.75;100.00;103133.16;5036874;28;20056;-80
2022/04/16 03:35:57;;;;;;;15.35;7.47;;;;;;;-0.80;100.00;103119.28;5028085;28;20025;-79
2022/04/16 03:38:23;;;;;;;17.42;8.40;;;;;;;-0.85;100.00;103127.25;5031682;28;20549;-79
2022/04/16 03:40:48;;;;;;;14.57;7.65;;;;;;;-0.88;100.00;103136.03;5029720;28;20052;-78
2022/04/16 03:43:14;;;;;;;17.55;8.68;;;;;;;-0.91;100.00;103145.75;5019387;28;20088;-80
2022/04/16 03:45:40;;;;;;;15.82;7.97;;;;;;;-0.99;100.00;103138.00;5031286;28;20032;-78
2022/04/16 03:48:07;;;;;;;18.80;8.77;;;;;;;-0.96;100.00;103137.06;5034044;28;20544;-80
2022/04/16 03:50:35;;;;;;;15.25;7.70;;;;;;;-0.98;100.00;103145.00;5038937;28;20517;-78
2022/04/16 03:53:00;;;;;;;22.95;8.88;;;;;;;-0.97;100.00;103144.06;5031471;28;20091;-80
2022/04/16 04:01:01;;;;;;;20.38;9.85;;;;;;;-0.98;100.00;103142.38;5046559;28;20048;-81
2022/04/16 04:03:27;;;;;;;20.35;9.38;;;;;;;-1.05;100.00;103143.38;5019789;28;20069;-80
2022/04/16 04:05:54;;;;;;;25.30;10.25;;;;;;;-0.97;100.00;103151.94;5035306;28;20046;-79
2022/04/16 04:08:21;;;;;;;18.83;9.55;;;;;;;-1.03;100.00;103144.22;5013257;28;20033;-76
2022/04/16 04:10:47;;;;;;;22.85;10.23;;;;;;;-1.07;100.00;103139.91;5022597;28;20045;-77
2022/04/16 04:13:13;;;;;;;20.48;9.60;;;;;;;-1.08;100.00;103140.78;5029960;28;20041;-77
2022/04/16 04:15:39;;;;;;;16.17;8.43;;;;;;;-1.06;100.00;103146.88;5034096;28;20045;-77
2022/04/16 04:18:05;;;;;;;19.77;10.68;;;;;;;-1.06;100.00;103141.63;5028609;28;20025;-79
2022/04/16 04:20:31;;;;;;;25.15;10.90;;;;;;;-1.04;100.00;103139.84;5014609;28;20125;-77
2022/04/16 04:22:56;;;;;;;19.15;8.88;;;;;;;-1.05;100.00;103151.25;5009752;28;20080;-77
2022/04/16 04:25:23;;;;;;;19.45;9.13;;;;;;;-1.06;100.00;103146.88;5023740;28;20044;-78
2022/04/16 04:27:48;;;;;;;24.10;10.00;;;;;;;-1.01;100.00;103149.41;5024708;28;20026;-78
2022/04/16 04:30:14;;;;;;;15.07;9.07;;;;;;;-1.08;100.00;103149.53;5020125;28;20515;-77
2022/04/16 04:32:40;;;;;;;18.13;10.48;;;;;;;-1.08;100.00;103148.66;5036955;28;20260;-80
2022/04/16 04:35:07;;;;;;;23.42;10.98;;;;;;;-1.04;100.00;103157.34;5015340;28;20046;-79
2022/04/16 04:37:32;;;;;;;20.27;10.02;;;;;;;-1.01;100.00;103155.50;5038589;28;20021;-78
2022/04/16 04:39:58;;;;;;;21.00;9.88;;;;;;;-1.01;100.00;103160.75;5032490;28;20045;-76
2022/04/16 04:42:29;;;;;;;22.30;10.20;;;;;;;-1.06;100.00;103150.34;5014395;28;20069;-78
2022/04/16 04:44:55;;;;;;;19.52;9.85;;;;;;;-1.03;100.00;103161.69;5036589;28;20068;-78
2022/04/16 04:47:20;;;;;;;19.48;10.27;;;;;;;-1.04;100.00;103155.56;5038689;28;20022;-78
2022/04/16 04:49:46;;;;;;;20.08;9.52;;;;;;;-0.98;100.00;103163.34;5037845;28;20037;-78
2022/04/16 04:52:20;;;;;;;24.88;11.93;;;;;;;-0.88;100.00;103162.25;5031099;28;20093;-79
2022/04/16 04:54:45;;;;;;;18.63;10.02;;;;;;;-0.81;100.00;103165.63;5036818;28;20040;-78
2022/04/16 04:57:11;;;;;;;19.30;10.50;;;;;;;-0.78;100.00;103169.97;5030396;28;20448;-77
2022/04/16 04:59:37;;;;;;;18.02;10.23;;;;;;;-0.76;100.00;103178.66;5032942;28;20025;-77
2022/04/16 05:02:02;;;;;;;18.23;10.02;;;;;;;-0.73;100.00;103182.06;5035210;28;20029;-76
2022/04/16 05:04:28;;;;;;;19.05;9.32;;;;;;;-0.64;100.00;103187.16;5013098;28;20046;-76
2022/04/16 05:06:53;;;;;;;24.63;10.90;;;;;;;-0.54;100.00;103193.09;5035892;28;20037;-78
2022/04/16 05:09:18;;;;;;;17.63;9.87;;;;;;;-0.49;100.00;103191.25;5030657;28;20882;-78
2022/04/16 05:11:44;;;;;;;21.90;11.03;;;;;;;-0.42;100.00;103194.59;5018842;28;20018;-78
2022/04/16 05:14:09;;;;;;;22.27;11.23;;;;;;;-0.40;100.00;103194.56;5032107;28;20326;-78
2022/04/16 05:16:34;;;;;;;19.93;9.70;;;;;;;-0.36;100.00;103193.59;5021524;28;20021;-80
2022/04/16 05:19:00;;;;;;;22.80;11.77;;;;;;;-0.24;100.00;103191.56;5030310;28;20033;-79
2022/04/16 05:21:25;;;;;;;20.07;10.67;;;;;;;-0.12;100.00;103197.47;5021314;28;20267;-80
2022/04/16 05:23:50;;;;;;;19.50;11.35;;;;;;;-0.09;100.00;103193.03;5015477;28;20063;-79
2022/04/16 05:26:16;;;;;;;24.85;11.95;;;;;;;0.07;100.00;103197.91;5007071;28;20029;-79
2022/04/16 05:28:41;;;;;;;23.02;11.13;;;;;;;0.17;100.00;103215.22;5018701;28;20036;-79
2022/04/16 05:31:07;;;;;;;26.67;12.87;;;;;;;0.41;100.00;103214.63;5011443;28;20044;-79
2022/04/16 05:36:17;;;;;;;24.60;12.40;;;;;;;1.26;100.00;103231.81;5038867;28;20083;-78
2022/04/16 05:38:44;;;;;;;32.80;13.82;;;;;;;1.30;100.00;103232.56;5016800;28;20469;-78
2022/04/16 05:41:09;;;;;;;;;;;;;;;1.36;100.00;103236.78;5016730;28;20042;-79
2022/04/16 05:43:35;;;;;;;25.73;12.23;;;;;;;1.41;100.00;103227.03;5037643;28;19916;-79
2022/04/16 05:46:00;;;;;;;25.48;12.82;;;;;;;1.72;100.00;103244.59;5046359;28;20068;-78
2022/04/16 05:48:26;;;;;;;26.38;13.18;;;;;;;3.68;100.00;103269.84;5034306;28;20136;-79
2022/04/16 05:50:51;;;;;;;18.57;10.77;;;;;;;5.36;100.00;103273.75;5029445;28;20152;-78
2022/04/16 05:53:17;;;;;;;16.00;9.15;;;;;;;6.68;100.00;103273.00;5023544;28;20030;-77
2022/04/16 05:55:48;;;;;;;13.52;7.88;;;;;;;7.98;100.00;103263.56;5024613;28;20038;-77
2022/04/16 05:58:14;;;;;;;12.40;7.13;;;;;;;8.92;100.00;103234.31;5017743;28;20065;-78
2022/04/16 06:00:40;;;;;;;8.68;6.03;;;;;;;9.49;100.00;103172.19;5038553;28;20021;-77
2022/04/16 06:03:06;;;;;;;13.13;6.43;;;;;;;10.31;100.00;103117.97;5024214;28;20521;-77
2022/04/16 06:05:32;;;;;;;14.63;6.53;;;;;;;10.69;100.00;102980.06;5020931;28;20167;-78
2022/04/16 06:07:58;;;;;;;10.23;6.72;;;;;;;11.30;100.00;102849.09;5020295;28;20192;-77
2022/04/16 06:10:24;;;;;;;;;;;;;;;11.33;98.48;102717.81;5018932;28;20499;-76
2022/04/16 06:12:49;;;;;;;;;;;;;;;11.68;85.77;102588.47;5025289;28;19921;-77
2022/04/16 06:15:14;;;;;;;10.27;6.27;;;;;;;11.96;81.23;102553.16;5035107;28;20004;-77
2022/04/16 06:17:40;;;;;;;9.83;7.10;;;;;;;11.17;81.13;102557.78;5020374;28;20616;-79
2022/04/16 06:20:07;;;;;;;8.87;5.90;;;;;;;11.69;78.86;102574.97;5027524;28;20059;-79
2022/04/16 06:22:32;;;;;;;9.68;5.78;;;;;;;12.03;77.53;102607.00;5025242;28;20045;-77
2022/04/16 06:24:57;;;;;;;11.07;6.73;;;;;;;12.03;75.62;102572.19;5029578;28;20029;-77
2022/04/16 06:27:23;;;;;;;10.93;6.83;;;;;;;12.33;74.17;102578.66;5023176;28;20475;-77
2022/04/16 06:29:48;;;;;;;8.03;5.60;;;;;;;12.61;72.09;102558.41;5021608;28;20049;-77
2022/04/16 06:32:14;;;;;;;10.10;5.80;;;;;;;12.49;70.20;102474.56;5000854;28;20038;-77
2022/04/16 06:34:39;;;;;;;7.23;5.80;;;;;;;12.34;71.94;102540.16;5017965;28;20116;-77
2022/04/16 06:37:04;;;;;;;10.57;6.30;;;;;;;12.00;72.51;102537.66;5016891;28;20284;-77
2022/04/16 06:39:30;;;;;;;9.43;6.33;;;;;;;12.25;72.52;102574.78;5016701;28;20026;-77
2022/04/16 06:41:56;;;;;;;8.80;5.80;;;;;;;12.45;72.85;102623.16;5022009;28;20034;-77
2022/04/16 06:44:21;;;;;;;12.27;6.60;;;;;;;12.55;70.40;102567.84;5025022;28;20662;-78
2022/04/16 06:46:46;;;;;;;12.57;6.70;;;;;;;12.17;71.32;102552.31;5024889;28;20212;-78
2022/04/16 06:49:12;;;;;;;6.77;5.20;;;;;;;12.36;72.14;102606.03;5021335;28;20021;-78
2022/04/16 06:51:37;;;;;;;15.17;6.53;;;;;;;12.19;71.42;102551.19;5026313;28;20100;-77
2022/04/16 06:54:02;;;;;;;8.27;5.57;;;;;;;12.62;72.38;102662.78;5021669;28;20033;-77
2022/04/16 06:56:28;;;;;;;8.27;6.43;;;;;;;12.25;72.36;102609.63;5043239;28;20042;-78
2022/04/16 06:58:53;;;;;;;11.23;5.93;;;;;;;12.24;70.96;102567.75;5006662;28;20025;-77
2022/04/16 07:01:19;;;;;;;7.53;5.63;;;;;;;11.92;72.15;102572.28;5024345;28;20037;-78
2022/04/16 07:03:44;;;;;;;8.73;6.27;;;;;;;11.84;73.32;102613.00;5028019;28;20053;-78
2022/04/16 07:06:09;;;;;;;10.07;6.00;;;;;;;11.67;74.35;102630.41;5022450;28;20068;-78
2022/04/16 07:08:35;;;;;;;9.13;4.90;;;;;;;12.24;72.88;102645.41;5022860;28;20025;-78
2022/04/16 07:11:00;;;;;;;7.60;4.07;;;;;;;12.03;70.67;102550.78;5021065;28;20042;-78
2022/04/16 07:13:25;;;;;;;5.97;3.23;;;;;;;12.11;68.14;102478.72;5029941;28;20030;-78
2022/04/16 07:15:51;;;;;;;6.07;4.10;;;;;;;12.04;67.08;102442.75;5022963;28;20570;-78
2022/04/16 07:18:16;;;;;;;4.20;3.27;;;;;;;11.74;66.95;102411.38;5022572;28;20021;-78
2022/04/16 07:20:45;;;;;;;5.40;3.37;;;;;;;11.90;66.34;102435.88;5024267;28;20121;-78
2022/04/16 07:23:10;;;;;;;4.15;2.83;;;;;;;11.98;65.10;102395.06;5026549;28;20089;-78
2022/04/16 07:25:35;;;;;;;3.73;2.57;;;;;;;11.83;65.41;102424.81;5024545;28;20037;-78
2022/04/16 07:28:01;;;;;;;2.97;1.97;;;;;;;11.59;67.09;102459.00;5023770;28;20040;-78
2022/04/16 07:30:27;;;;;;;3.97;2.23;;;;;;;12.17;66.05;102499.59;5023326;28;20045;-78
2022/04/16 07:32:53;;;;;;;3.00;1.90;;;;;;;12.33;62.33;102392.03;5023011;28;20035;-77
2022/04/16 07:35:19;;;;;;;13.57;2.92;;;;;;;12.50;62.89;102424.53;5026738;28;20111;-78
2022/04/16 07:37:44;;;;;;;4.10;2.88;;;;;;;12.20;61.49;102362.81;5022962;28;20030;-78
2022/04/16 07:40:10;;;;;;;5.15;1.98;;;;;;;11.57;61.00;102271.03;5023535;28;20037;-77
2022/04/16 07:42:35;;;;;;;3.60;1.40;;;;;;;11.88;60.98;102338.81;5017644;28;20110;-77
2022/04/16 07:45:01;;;;;;;2.47;1.50;;;;;;;11.15;57.62;102052.66;5001666;28;20353;-77
2022/04/16 07:47:26;;;;;;;2.17;1.43;;;;;;;11.77;61.28;102374.47;5013039;28;20132;-77
2022/04/16 07:49:52;;;;;;;4.80;1.30;;;;;;;12.08;59.27;102346.94;5020787;28;20103;-78
2022/04/16 07:52:17;;;;;;;2.07;1.30;;;;;;;12.29;57.70;102293.34;5016017;28;20041;-77
2022/04/16 07:54:42;;;;;;;1.63;1.30;;;;;;;11.94;55.97;102148.28;5016308;28;20392;-77
2022/04/16 07:57:08;;;;;;;2.23;1.30;;;;;;;11.86;57.54;102259.63;5019158;28;20671;-78
2022/04/16 07:59:34;;;;;;;2.05;1.33;;;;;;;11.67;57.70;102245.16;5003271;28;20585;-78
2022/04/16 08:01:59;;;;;;;3.47;1.60;;;;;;;12.45;56.40;102277.59;5018172;28;20108;-78
2022/04/16 08:04:25;;;;;;;5.57;1.23;;;;;;;12.45;54.99;102251.69;5019564;28;20099;-78
2022/04/16 08:06:50;;;;;;;2.20;1.00;;;;;;;12.56;54.74;102248.00;5020588;28;20090;-78
2022/04/16 08:09:17;;;;;;;3.63;1.33;;;;;;;12.70;54.93;102294.16;5018189;28;20041;-78
2022/04/16 08:11:42;;;;;;;;;;;;;;;13.32;54.66;102368.03;5016473;28;20030;-77
2022/04/16 08:14:08;;;;;;;8.75;2.25;;;;;;;12.47;55.15;102281.00;5018670;28;19925;-77
2022/04/16 08:16:33;;;;;;;3.93;1.23;;;;;;;13.09;53.34;102239.56;5020723;28;20502;-78
2022/04/16 08:18:59;;;;;;;1.57;1.10;;;;;;;11.94;51.23;101958.25;5018596;28;20495;-78
2022/04/16 08:21:28;;;;;;;1.60;1.17;;;;;;;11.67;52.83;102049.88;5015713;28;20030;-77
2022/04/16 08:24:04;;;;;;;0.98;0.88;;;;;;;12.89;53.81;102318.28;5017999;28;20062;-78
2022/04/16 08:26:30;;;;;;;2.08;1.15;;;;;;;13.46;52.39;102327.38;5020432;28;20129;-78
2022/04/16 08:28:56;;;;;;;;;;;;;;;14.01;52.04;102358.06;5019861;28;20033;-79
2022/04/16 08:31:21;;;;;;;;;;;;;;;13.96;49.98;102204.59;5020902;28;19913;-78
2022/04/16 08:33:46;;;;;;;3.40;0.70;;;;;;;11.92;49.45;101820.22;5012554;28;19917;-78
2022/04/16 08:36:12;;;;;;;2.57;0.80;;;;;;;12.29;51.38;102093.38;5036088;28;20107;-77
2022/04/16 08:38:37;;;;;;;1.03;0.83;;;;;;;11.65;50.23;101894.00;5020899;28;20079;-78
2022/04/16 08:41:04;;;;;;;7.07;1.67;;;;;;;11.23;52.88;102078.72;5018070;28;20115;-78
2022/04/16 08:43:30;;;;;;;1.10;0.90;;;;;;;12.91;51.86;102225.19;5001895;28;20033;-78
2022/04/16 08:45:56;;;;;;;2.70;1.25;;;;;;;12.10;49.78;101970.19;5006056;28;20495;-79
2022/04/16 08:48:21;;;;;;;2.55;1.45;;;;;;;13.13;50.28;102252.69;5022570;28;20034;-79
2022/04/16 08:50:48;;;;;;;2.30;1.42;;;;;;;13.49;49.96;102273.41;5019413;28;20037;-79
2022/04/16 08:53:14;;;;;;;1.48;1.00;;;;;;;13.52;47.59;102066.53;5020511;28;20102;-77
2022/04/16 08:55:39;;;;;;;;;;;;;;;13.24;47.54;102054.91;5021128;28;20036;-78
2022/04/16 08:58:05;;;;;;;;;;;;;;;11.55;48.65;101813.78;5043011;28;20373;-79
2022/04/16 09:00:31;;;;;;;2.13;1.20;;;;;;;11.34;50.22;101883.44;5006585;28;20410;-79
2022/04/16 09:02:58;;;;;;;3.25;1.92;;;;;;;12.62;50.77;102193.03;5014545;28;20068;-77
2022/04/16 09:05:26;;;;;;;2.40;0.90;;;;;;;12.88;49.61;102151.25;5007788;28;20037;-79
2022/04/16 09:07:57;;;;;;;2.42;1.27;;;;;;;12.58;51.00;102186.25;5005587;28;20060;-78
2022/04/16 09:10:30;;;;;;;2.80;1.67;;;;;;;13.96;50.41;102381.81;5003560;28;20063;-78
2022/04/16 09:12:58;;;;;;;2.72;1.60;;;;;;;14.03;48.20;102189.59;5025184;28;20038;-78
2022/04/16 09:15:25;;;;;;;3.90;1.80;;;;;;;14.40;47.21;102169.81;5023384;28;20399;-78
2022/04/16 09:18:07;;;;;;;2.05;1.45;;;;;;;14.91;46.81;102231.00;5023023;28;20036;-78
2022/04/16 09:20:36;;;;;;;2.33;1.40;;;;;;;14.13;46.18;102032.75;5034300;28;20047;-78
2022/04/16 09:23:19;;;;;;;2.83;1.92;;;;;;;15.17;47.40;102270.50;5018799;28;20827;-80
2022/04/16 09:25:45;;;;;;;2.72;1.50;;;;;;;15.44;48.12;102353.00;5000278;28;20040;-79
2022/04/16 09:28:14;;;;;;;2.88;1.60;;;;;;;16.13;46.23;102355.84;5019582;28;20029;-79
2022/04/16 09:30:49;;;;;;;4.15;1.73;;;;;;;16.02;44.69;102212.34;5005288;28;20065;-78
2022/04/16 09:33:17;;;;;;;;;;;;;;;14.45;43.55;101804.81;5013426;28;20076;-78
2022/04/16 09:35:42;;;;;;;1.73;0.88;;;;;;;13.43;46.32;101919.03;5031039;28;19920;-79
2022/04/16 09:38:12;;;;;;;2.13;1.30;;;;;;;13.21;47.06;101898.84;5021736;28;20041;-78
2022/04/16 09:40:37;;;;;;;1.58;1.35;;;;;;;12.62;46.61;101785.81;5023775;28;20021;-80
2022/04/16 09:43:05;;;;;;;1.63;1.30;;;;;;;13.08;48.13;102015.31;5019801;28;20120;-77
2022/04/16 09:45:32;;;;;;;3.25;1.65;;;;;;;12.77;48.62;102004.03;5004934;28;20029;-79
2022/04/16 09:47:58;;;;;;;1.67;1.27;;;;;;;12.97;49.38;102087.03;5020637;28;20112;-78
2022/04/16 09:50:25;;;;;;;;;;;;;;;12.61;51.29;102151.16;5022199;28;20021;-77
2022/04/16 09:52:55;;;;;;;4.38;2.15;;;;;;;14.75;53.86;102636.81;5020711;28;19913;-78
2022/04/16 09:55:22;;;;;;;3.33;2.00;;;;;;;15.04;48.68;102324.72;5016690;28;20042;-79
2022/04/16 09:58:02;;;;;;;2.83;1.67;;;;;;;16.19;46.26;102339.88;5020655;28;20646;-78
2022/04/16 10:00:29;;;;;;;2.05;1.60;;;;;;;16.17;44.56;102247.59;5027251;28;20034;-80
2022/04/16 10:02:55;;;;;;;2.00;1.42;;;;;;;16.62;44.98;102339.88;5017273;28;20033;-79
2022/04/16 10:05:22;;;;;;;3.65;1.50;;;;;;;16.01;42.45;101968.25;5003742;28;20033;-79
2022/04/16 10:07:48;;;;;;;3.20;2.40;;;;;;;16.93;44.64;102333.91;5019631;28;20028;-79
2022/04/16 10:10:30;;;;;;;3.42;2.13;;;;;;;16.43;46.38;102331.06;5018409;28;20037;-79
2022/04/16 10:13:05;;;;;;;3.90;1.90;;;;;;;16.95;44.21;102268.03;5017948;28;20045;-80
2022/04/16 10:15:53;;;;;;;3.03;1.83;;;;;;;16.24;45.17;102212.75;5020939;28;20048;-79
2022/04/16 10:18:18;;;;;;;2.83;1.75;;;;;;;15.58;45.13;102096.69;4996969;28;20034;-79
2022/04/16 10:20:55;;;;;;;6.25;2.05;;;;;;;16.55;44.71;102199.53;5019001;28;20021;-79
2022/04/16 10:23:32;;;;;;;7.57;3.20;;;;;;;17.11;43.98;102245.56;5009927;28;20048;-80
2022/04/16 10:26:09;;;;;;;3.22;2.75;;;;;;;16.25;47.14;102276.44;5017373;28;20068;-78
2022/04/16 10:28:41;;;;;;;5.20;3.00;;;;;;;15.67;48.20;102201.75;5001088;28;20030;-78
2022/04/16 10:31:25;;;;;;;5.25;3.20;;;;;;;14.45;49.13;102066.28;5034449;28;20858;-79
2022/04/16 10:34:01;;;;;;;6.13;3.17;;;;;;;13.36;52.12;102086.94;5021821;28;20461;-78
2022/04/16 10:36:39;;;;;;;4.05;2.88;;;;;;;13.71;53.66;102317.00;5002703;28;20034;-79
2022/04/16 10:39:16;;;;;;;5.80;2.90;;;;;;;13.83;54.20;102372.22;5018257;28;20038;-80
2022/04/16 10:41:59;;;;;;;6.47;4.03;;;;;;;15.28;53.64;102578.88;5021170;28;20021;-81
2022/04/16 10:44:26;;;;;;;4.60;3.33;;;;;;;16.45;49.83;102533.91;5011080;28;20033;-80
2022/04/16 10:46:54;;;;;;;4.00;3.17;;;;;;;17.03;49.02;102558.59;5023736;28;20483;-80
2022/04/16 10:49:24;;;;;;;4.97;3.25;;;;;;;16.69;47.41;102324.75;5016978;28;20026;-80
2022/04/16 10:51:50;;;;;;;4.20;3.03;;;;;;;17.46;47.71;102502.72;5006257;28;20135;-80
2022/04/16 10:54:31;;;;;;;3.10;2.40;;;;;;;17.75;46.79;102486.06;5028701;28;20021;-80
2022/04/16 10:56:57;;;;;;;3.75;2.60;;;;;;;16.98;46.01;102239.88;5019774;28;20045;-81
2022/04/16 10:59:42;;;;;;;3.07;2.57;;;;;;;17.21;45.52;102254.38;5017136;28;20181;-80
2022/04/16 11:02:34;;;;;;;3.88;2.58;;;;;;;17.12;46.44;102287.75;5018757;28;20075;-80
2022/04/16 11:05:02;;;;;;;4.65;3.25;;;;;;;16.71;47.44;102263.41;5017957;28;20045;-80
2022/04/16 11:07:29;;;;;;;4.35;3.13;;;;;;;16.50;49.18;102387.03;5026938;28;20113;-80
2022/04/16 11:09:57;;;;;;;4.85;3.22;;;;;;;17.02;46.99;102330.22;5023210;28;20033;-79
2022/04/16 11:12:23;;;;;;;4.13;3.38;;;;;;;17.70;44.92;102339.88;5003236;28;20063;-81
2022/04/16 11:14:52;;;;;;;4.55;2.85;;;;;;;17.80;44.80;102310.81;5021031;28;20041;-79
2022/04/16 11:17:19;;;;;;;4.38;3.13;;;;;;;18.18;46.17;102443.50;5014776;28;20518;-79
2022/04/16 11:20:11;;;;;;;4.18;3.30;;;;;;;17.20;46.00;102181.66;5020310;28;20442;-80
2022/04/16 11:22:38;;;;;;;4.22;3.00;;;;;;;16.81;45.92;102148.16;5002513;28;20045;-80
2022/04/16 11:25:07;;;;;;;5.70;3.50;;;;;;;16.68;46.97;102191.75;5020511;28;20021;-80
2022/04/16 11:35:59;;;;;;;3.03;2.38;;;;;;;17.44;43.95;102192.41;5027134;28;20487;-79
2022/04/16 11:38:29;;;;;;;4.63;3.30;;;;;;;17.07;43.92;102107.47;5024542;28;20145;-80
2022/04/16 11:41:04;;;;;;;3.70;2.83;;;;;;;16.97;44.08;102123.00;5004058;28;20224;-80
2022/04/16 11:43:31;;;;;;;3.85;2.90;;;;;;;17.36;45.13;102243.72;5024276;28;20029;-80